Tolani Lakes, Arizona
Current Conditions -  °F | °C
As of 1:56 PM on Wednesday 22 Oct 2014 (Local Time) from KINW Reporting Station
Clear Clear  
Wind Chill: 75°   Ceiling: Unl
Heat Index: 75°   Visibility: 10mi
Dew Point: 39°   Wind: 6mph
Humidity: 27%   Direction: NA
Pressure: 30.13"   Gusts: NA
Location:  35.1934°N, 110.361°W
Report Text: KINW 222056Z AUTO VRB05KT 10SM CLR 24/04 A3013 RMK AO2 SLP149 T02390039 56018
Loading
Personal Weather Stations






























Interactive Weather Map
Tropical Storm Tracking
New forecast layout! Learn more

10-Day Weather Forecast

Advertisements
Track Severe Weather on mobile